Wetterdaten: Woche 14.03.22 - 20.03.22 (KW11)
Datum Zeit Temp. Aussen Temp. o. S. Temp +5cm Feuchte Auss Luftdruck Regen Sonnenschein Regendauer Solar Windben Empfang
14.03.2022 00:00 10,8 C 9,8 C 5,9 C 78 % 1017,8 hPa 0,0 l/m 0,00 h 0,27 h 0 W/m 6,9 km/h (2 Bft) 97,87 %
14.03.2022 01:00 10,3 C 9,4 C 5,6 C 82 % 1018,2 hPa 0,0 l/m 0,00 h 0,00 h 0 W/m 4,2 km/h (1 Bft) 98,08 %
14.03.2022 02:00 10,0 C 9,3 C 5,5 C 83 % 1018,8 hPa 0,0 l/m 0,00 h 0,17 h 0 W/m 4,8 km/h (1 Bft) 97,01 %
14.03.2022 03:00 9,6 C 8,2 C 4,2 C 86 % 1019,3 hPa 1,4 l/m 0,00 h 0,03 h 0 W/m 6,6 km/h (2 Bft) 98,93 %
14.03.2022 04:00 8,9 C 7,8 C 3,9 C 92 % 1020,1 hPa 1,6 l/m 0,00 h 0,03 h 0 W/m 11,2 km/h (2 Bft) 97,18 %
14.03.2022 05:00 8,6 C 7,8 C 3,9 C 95 % 1021,0 hPa 0,4 l/m 0,00 h 0,07 h 0 W/m 11,7 km/h (2 Bft) 95,56 %
14.03.2022 06:00 8,2 C 7,4 C 3,5 C 93 % 1021,9 hPa 0,0 l/m 0,00 h 0,00 h 0 W/m 11,2 km/h (2 Bft) 98,45 %
14.03.2022 07:00 8,2 C 7,5 C 3,8 C 93 % 1022,7 hPa 0,0 l/m 0,00 h 0,07 h 17 W/m 8,6 km/h (2 Bft) 97,87 %
14.03.2022 08:00 8,5 C 8,2 C 3,9 C 93 % 1023,4 hPa 0,0 l/m 0,00 h 0,00 h 65 W/m 9,4 km/h (2 Bft) 97,08 %
14.03.2022 09:00 9,2 C 9,1 C 4,4 C 90 % 1024,4 hPa 0,0 l/m 0,00 h 0,00 h 118 W/m 11,3 km/h (2 Bft) 96,45 %
14.03.2022 10:00 9,9 C 10,1 C 5,1 C 86 % 1025,2 hPa 0,0 l/m 0,13 h 0,00 h 174 W/m 14,7 km/h (3 Bft) 97,86 %
14.03.2022 11:00 11,4 C 13,4 C 9,1 C 80 % 1025,9 hPa 0,0 l/m 0,57 h 0,00 h 309 W/m 15,2 km/h (3 Bft) 98,00 %
14.03.2022 12:00 12,3 C 13,2 C 9,7 C 75 % 1026,2 hPa 0,2 l/m 0,33 h 0,00 h 264 W/m 16,5 km/h (3 Bft) 97,36 %
14.03.2022 13:00 11,7 C 11,8 C 8,2 C 76 % 1026,6 hPa 0,0 l/m 0,10 h 0,00 h 185 W/m 16,5 km/h (3 Bft) 96,74 %
14.03.2022 14:00 12,9 C 13,7 C 9,4 C 71 % 1026,8 hPa 0,0 l/m 0,27 h 0,00 h 257 W/m 13,1 km/h (3 Bft) 97,93 %
14.03.2022 15:00 13,1 C 13,8 C 9,2 C 70 % 1027,0 hPa 0,0 l/m 0,73 h 0,00 h 236 W/m 11,5 km/h (2 Bft) 99,64 %
14.03.2022 16:00 13,4 C 14,6 C 8,7 C 68 % 1026,9 hPa 0,0 l/m 1,00 h 0,00 h 268 W/m 13,2 km/h (3 Bft) 95,71 %
14.03.2022 17:00 13,0 C 12,7 C 8,1 C 68 % 1027,5 hPa 0,0 l/m 0,40 h 0,00 h 88 W/m 7,5 km/h (2 Bft) 97,79 %
14.03.2022 18:00 12,2 C 10,8 C 6,9 C 71 % 1028,2 hPa 0,0 l/m 0,00 h 0,00 h 14 W/m 3,1 km/h (1 Bft) 97,46 %
14.03.2022 19:00 10,5 C 7,9 C 3,9 C 75 % 1028,5 hPa 0,0 l/m 0,00 h 0,00 h 0 W/m 0,1 km/h (0 Bft) 96,59 %
14.03.2022 20:00 8,7 C 6,7 C 2,9 C 80 % 1028,7 hPa 0,0 l/m 0,00 h 0,00 h 0 W/m 0,1 km/h (0 Bft) 98,29 %
14.03.2022 21:00 7,5 C 6,3 C 2,7 C 84 % 1028,9 hPa 0,0 l/m 0,00 h 0,00 h 0 W/m 1,0 km/h (0 Bft) 98,79 %
14.03.2022 22:00 7,4 C 6,8 C 3,4 C 86 % 1029,1 hPa 0,0 l/m 0,00 h 0,00 h 0 W/m 6,1 km/h (2 Bft) 95,80 %
14.03.2022 23:00 7,4 C 6,5 C 3,3 C 85 % 1029,1 hPa 0,0 l/m 0,00 h 0,00 h 0 W/m 6,0 km/h (2 Bft) 98,93 %
15.03.2022 00:00 7,0 C 6,1 C 2,8 C 86 % 1028,9 hPa 0,0 l/m 0,00 h 0,00 h 0 W/m 4,3 km/h (1 Bft) 97,31 %
15.03.2022 01:00 6,6 C 5,6 C 2,6 C 87 % 1028,7 hPa 0,0 l/m 0,00 h 0,00 h 0 W/m 4,2 km/h (1 Bft) 96,87 %
15.03.2022 02:00 6,3 C 5,5 C 2,2 C 88 % 1028,5 hPa 0,0 l/m 0,00 h 0,00 h 0 W/m 6,3 km/h (2 Bft) 98,01 %
15.03.2022 03:00 6,1 C 5,6 C 2,2 C 89 % 1028,1 hPa 0,0 l/m 0,00 h 0,00 h 0 W/m 9,9 km/h (2 Bft) 97,22 %
15.03.2022 04:00 5,9 C 5,0 C 2,2 C 89 % 1027,7 hPa 0,0 l/m 0,00 h 0,00 h 0 W/m 8,5 km/h (2 Bft) 96,64 %
15.03.2022 05:00 5,8 C 5,0 C 2,2 C 89 % 1027,5 hPa 0,0 l/m 0,00 h 0,00 h 0 W/m 10,2 km/h (2 Bft) 96,37 %
15.03.2022 06:00 5,8 C 5,0 C 2,2 C 89 % 1027,1 hPa 0,0 l/m 0,00 h 0,00 h 0 W/m 6,1 km/h (2 Bft) 99,27 %
15.03.2022 07:00 5,8 C 5,1 C 2,2 C 90 % 1026,8 hPa 0,0 l/m 0,00 h 0,00 h 22 W/m 2,2 km/h (1 Bft) 96,73 %
15.03.2022 08:00 6,1 C 6,1 C 2,7 C 90 % 1026,5 hPa 0,0 l/m 0,00 h 0,00 h 56 W/m 3,5 km/h (1 Bft) 96,70 %
15.03.2022 09:00 7,2 C 7,4 C 3,9 C 88 % 1026,1 hPa 0,0 l/m 0,00 h 0,00 h 83 W/m 7,0 km/h (2 Bft) 96,99 %
15.03.2022 10:00 8,0 C 7,9 C 4,4 C 84 % 1025,8 hPa 0,0 l/m 0,00 h 0,00 h 97 W/m 8,5 km/h (2 Bft) 96,51 %
15.03.2022 11:00 8,7 C 8,4 C 4,8 C 84 % 1025,3 hPa 0,0 l/m 0,00 h 0,10 h 126 W/m 9,7 km/h (2 Bft) 96,12 %
15.03.2022 12:00 9,0 C 8,6 C 4,2 C 86 % 1024,8 hPa 0,0 l/m 0,00 h 0,27 h 147 W/m 10,2 km/h (2 Bft) 99,67 %
15.03.2022 13:00 9,5 C 9,9 C 5,8 C 87 % 1023,8 hPa 0,0 l/m 0,00 h 0,00 h 215 W/m 12,0 km/h (2 Bft) 94,09 %
15.03.2022 14:00 10,6 C 11,9 C 7,1 C 82 % 1023,0 hPa 0,0 l/m 0,73 h 0,00 h 290 W/m 13,6 km/h (3 Bft) 99,29 %
15.03.2022 15:00 12,0 C 16,3 C 8,1 C 76 % 1022,9 hPa 0,0 l/m 1,00 h 0,00 h 411 W/m 13,1 km/h (3 Bft) 98,22 %
15.03.2022 16:00 11,9 C 11,5 C 7,3 C 74 % 1023,0 hPa 0,0 l/m 0,07 h 0,00 h 93 W/m 12,9 km/h (3 Bft) 95,52 %
15.03.2022 17:00 10,8 C 10,1 C 6,5 C 79 % 1023,2 hPa 0,0 l/m 0,07 h 0,00 h 58 W/m 9,1 km/h (2 Bft) 99,43 %
15.03.2022 18:00 9,9 C 8,5 C 5,3 C 83 % 1023,6 hPa 0,0 l/m 0,00 h 0,00 h 9 W/m 7,4 km/h (2 Bft) 95,95 %
15.03.2022 19:00 8,7 C 7,5 C 4,3 C 85 % 1023,8 hPa 0,0 l/m 0,00 h 0,00 h 0 W/m 5,9 km/h (2 Bft) 98,00 %
15.03.2022 20:00 7,9 C 6,9 C 3,8 C 86 % 1024,1 hPa 0,0 l/m 0,00 h 0,00 h 0 W/m 6,1 km/h (2 Bft) 98,29 %
15.03.2022 21:00 7,2 C 6,1 C 3,0 C 87 % 1024,5 hPa 0,0 l/m 0,00 h 0,00 h 0 W/m 4,5 km/h (1 Bft) 96,66 %
15.03.2022 22:00 6,3 C 4,7 C 1,7 C 88 % 1024,8 hPa 0,0 l/m 0,00 h 0,00 h 0 W/m 1,8 km/h (1 Bft) 97,86 %
15.03.2022 23:00 5,3 C 3,4 C 0,5 C 89 % 1025,1 hPa 0,0 l/m 0,00 h 0,00 h 0 W/m 0,3 km/h (0 Bft) 96,18 %
16.03.2022 00:00 4,1 C 2,8 C 0,0 C 91 % 1025,2 hPa 0,0 l/m 0,00 h 0,00 h 0 W/m 1,7 km/h (1 Bft) 98,19 %
16.03.2022 01:00 3,8 C 2,7 C -0,0 C 93 % 1025,2 hPa 0,0 l/m 0,00 h 0,00 h 0 W/m 1,4 km/h (1 Bft) 95,11 %
16.03.2022 02:00 3,2 C 1,9 C -0,6 C 93 % 1025,1 hPa 0,0 l/m 0,00 h 0,00 h 0 W/m 1,7 km/h (1 Bft) 97,65 %
16.03.2022 03:00 2,8 C 1,7 C -0,7 C 94 % 1024,9 hPa 0,0 l/m 0,00 h 0,00 h 0 W/m 2,7 km/h (1 Bft) 98,29 %
16.03.2022 04:00 2,7 C 1,7 C -0,9 C 95 % 1024,7 hPa 0,2 l/m 0,00 h 0,00 h 0 W/m 4,2 km/h (1 Bft) 97,65 %
16.03.2022 05:00 2,5 C 1,4 C -1,1 C 96 % 1024,9 hPa 0,0 l/m 0,00 h 0,00 h 0 W/m 1,8 km/h (1 Bft) 94,65 %
16.03.2022 06:00 2,4 C 1,6 C -0,9 C 96 % 1024,9 hPa 0,0 l/m 0,00 h 0,00 h 5 W/m 4,6 km/h (1 Bft) 98,64 %
16.03.2022 07:00 3,4 C 3,3 C 0,5 C 96 % 1025,1 hPa 0,0 l/m 0,00 h 0,00 h 37 W/m 12,9 km/h (3 Bft) 97,44 %
16.03.2022 08:00 5,0 C 5,4 C 2,1 C 95 % 1025,0 hPa 0,0 l/m 0,23 h 0,00 h 107 W/m 18,6 km/h (3 Bft) 96,44 %
16.03.2022 09:00 7,4 C 9,1 C 4,3 C 87 % 1024,9 hPa 0,0 l/m 0,97 h 0,00 h 283 W/m 21,0 km/h (4 Bft) 99,29 %
16.03.2022 10:00 9,1 C 11,1 C 7,8 C 80 % 1024,7 hPa 0,0 l/m 0,93 h 0,00 h 399 W/m 27,9 km/h (4 Bft) 96,16 %
16.03.2022 11:00 11,3 C 14,7 C 11,5 C 73 % 1024,4 hPa 0,0 l/m 1,00 h 0,00 h 597 W/m 29,6 km/h (5 Bft) 96,08 %
16.03.2022 12:00 12,6 C 14,0 C 10,0 C 69 % 1024,0 hPa 0,0 l/m 1,00 h 0,00 h 509 W/m 26,2 km/h (4 Bft) 98,13 %
16.03.2022 13:00 13,4 C 15,0 C 9,6 C 66 % 1023,6 hPa 0,0 l/m 0,97 h 0,00 h 421 W/m 26,7 km/h (4 Bft) 98,29 %
16.03.2022 14:00 13,4 C 13,3 C 9,4 C 67 % 1023,0 hPa 0,0 l/m 0,00 h 0,00 h 234 W/m 20,4 km/h (4 Bft) 95,85 %
16.03.2022 15:00 13,5 C 13,3 C 9,3 C 68 % 1022,4 hPa 0,0 l/m 0,10 h 0,00 h 200 W/m 21,1 km/h (4 Bft) 98,08 %
16.03.2022 16:00 13,2 C 12,6 C 8,9 C 69 % 1021,7 hPa 0,0 l/m 0,00 h 0,00 h 102 W/m 21,7 km/h (4 Bft) 96,63 %
16.03.2022 17:00 12,8 C 12,1 C 8,3 C 70 % 1021,5 hPa 0,0 l/m 0,00 h 0,00 h 35 W/m 19,3 km/h (3 Bft) 97,42 %
16.03.2022 18:00 12,4 C 11,7 C 7,8 C 71 % 1021,3 hPa 0,0 l/m 0,00 h 0,00 h 10 W/m 20,3 km/h (4 Bft) 97,14 %
16.03.2022 19:00 12,0 C 11,1 C 7,4 C 72 % 1020,9 hPa 0,0 l/m 0,00 h 0,00 h 0 W/m 21,0 km/h (4 Bft) 97,94 %
16.03.2022 20:00 11,6 C 10,7 C 7,1 C 75 % 1021,1 hPa 0,0 l/m 0,00 h 0,00 h 0 W/m 16,7 km/h (3 Bft) 97,15 %
16.03.2022 21:00 11,4 C 10,6 C 6,9 C 75 % 1020,8 hPa 0,0 l/m 0,00 h 0,00 h 0 W/m 21,2 km/h (4 Bft) 98,57 %
16.03.2022 22:00 11,3 C 10,6 C 6,8 C 76 % 1020,9 hPa 0,0 l/m 0,00 h 0,00 h 0 W/m 20,0 km/h (4 Bft) 97,30 %
16.03.2022 23:00 11,1 C 10,6 C 6,7 C 77 % 1020,9 hPa 0,0 l/m 0,00 h 0,00 h 0 W/m 17,6 km/h (3 Bft) 97,36 %
17.03.2022 00:00 11,1 C 10,2 C 6,7 C 77 % 1020,9 hPa 0,0 l/m 0,00 h 0,00 h 0 W/m 18,5 km/h (3 Bft) 97,63 %
17.03.2022 01:00 10,9 C 10,0 C 6,7 C 78 % 1020,8 hPa 0,0 l/m 0,00 h 0,00 h 0 W/m 18,9 km/h (3 Bft) 97,58 %
17.03.2022 02:00 10,8 C 10,0 C 6,7 C 78 % 1020,7 hPa 0,0 l/m 0,00 h 0,00 h 0 W/m 17,2 km/h (3 Bft) 97,51 %
17.03.2022 03:00 10,9 C 10,0 C 6,7 C 78 % 1020,7 hPa 0,0 l/m 0,00 h 0,00 h 0 W/m 19,3 km/h (3 Bft) 98,08 %
17.03.2022 04:00 10,8 C 10,0 C 6,4 C 79 % 1021,1 hPa 0,0 l/m 0,00 h 0,10 h 0 W/m 14,9 km/h (3 Bft) 95,98 %
17.03.2022 05:00 10,2 C 8,9 C 4,7 C 86 % 1022,0 hPa 0,8 l/m 0,00 h 1,00 h 0 W/m 8,1 km/h (2 Bft) 97,79 %
17.03.2022 06:00 9,7 C 8,5 C 5,0 C 93 % 1023,4 hPa 0,2 l/m 0,00 h 0,17 h 0 W/m 13,0 km/h (3 Bft) 97,35 %
17.03.2022 07:00 8,7 C 8,0 C 4,5 C 96 % 1025,1 hPa 0,0 l/m 0,00 h 0,00 h 8 W/m 19,3 km/h (3 Bft) 94,07 %
17.03.2022 08:00 8,0 C 7,7 C 4,0 C 94 % 1026,8 hPa 0,0 l/m 0,00 h 0,00 h 26 W/m 18,2 km/h (3 Bft) 99,50 %
17.03.2022 09:00 8,0 C 7,9 C 3,6 C 89 % 1028,1 hPa 0,0 l/m 0,03 h 0,00 h 109 W/m 17,5 km/h (3 Bft) 97,01 %
17.03.2022 10:00 8,7 C 8,6 C 4,7 C 85 % 1029,2 hPa 0,0 l/m 0,00 h 0,00 h 127 W/m 20,1 km/h (4 Bft) 97,43 %
17.03.2022 11:00 8,8 C 8,9 C 5,5 C 83 % 1030,1 hPa 0,0 l/m 0,00 h 0,00 h 132 W/m 18,4 km/h (3 Bft) 98,36 %
17.03.2022 12:00 9,6 C 10,6 C 6,7 C 80 % 1030,9 hPa 0,0 l/m 0,47 h 0,00 h 277 W/m 15,2 km/h (3 Bft) 97,68 %
17.03.2022 13:00 9,8 C 10,4 C 6,6 C 76 % 1031,5 hPa 0,0 l/m 0,00 h 0,00 h 205 W/m 18,1 km/h (3 Bft) 96,08 %
17.03.2022 14:00 9,8 C 10,0 C 6,1 C 73 % 1031,9 hPa 0,0 l/m 0,00 h 0,00 h 204 W/m 23,0 km/h (4 Bft) 99,71 %
17.03.2022 15:00 9,9 C 10,1 C 6,2 C 71 % 1032,5 hPa 0,0 l/m 0,00 h 0,00 h 174 W/m 15,0 km/h (3 Bft) 96,87 %
17.03.2022 16:00 10,1 C 9,9 C 6,1 C 71 % 1033,0 hPa 0,0 l/m 0,00 h 0,00 h 113 W/m 8,2 km/h (2 Bft) 97,22 %
17.03.2022 17:00 9,8 C 8,9 C 5,3 C 72 % 1033,5 hPa 0,0 l/m 0,00 h 0,00 h 53 W/m 1,0 km/h (0 Bft) 98,29 %
17.03.2022 18:00 9,0 C 7,2 C 3,6 C 75 % 1034,3 hPa 0,0 l/m 0,00 h 0,00 h 12 W/m 0,0 km/h (0 Bft) 96,94 %
17.03.2022 19:00 7,8 C 5,8 C 2,4 C 78 % 1035,3 hPa 0,0 l/m 0,00 h 0,00 h 0 W/m 0,0 km/h (0 Bft) 96,17 %
17.03.2022 20:00 6,5 C 4,9 C 1,7 C 81 % 1036,2 hPa 0,0 l/m 0,00 h 0,00 h 0 W/m 0,0 km/h (0 Bft) 98,52 %
17.03.2022 21:00 5,5 C 4,1 C 0,9 C 83 % 1037,0 hPa 0,0 l/m 0,00 h 0,00 h 0 W/m 0,0 km/h (0 Bft) 98,09 %
17.03.2022 22:00 4,7 C 3,7 C 0,6 C 87 % 1037,7 hPa 0,0 l/m 0,00 h 0,00 h 0 W/m 1,2 km/h (1 Bft) 95,16 %
17.03.2022 23:00 4,3 C 3,4 C 0,3 C 88 % 1038,1 hPa 0,0 l/m 0,00 h 0,00 h 0 W/m 0,0 km/h (0 Bft) 97,92 %
18.03.2022 00:00 3,7 C 2,7 C -0,3 C 88 % 1038,4 hPa 0,0 l/m 0,00 h 0,00 h 0 W/m 0,0 km/h (0 Bft) 97,02 %
18.03.2022 01:00 3,0 C 1,8 C -1,0 C 88 % 1038,8 hPa 0,0 l/m 0,00 h 0,00 h 0 W/m 0,1 km/h (0 Bft) 98,44 %
18.03.2022 02:00 2,3 C 1,2 C -1,3 C 89 % 1039,2 hPa 0,0 l/m 0,00 h 0,00 h 0 W/m 0,2 km/h (0 Bft) 96,01 %
18.03.2022 03:00 1,8 C 0,6 C -1,8 C 90 % 1039,6 hPa 0,0 l/m 0,00 h 0,00 h 0 W/m 0,0 km/h (0 Bft) 97,92 %
18.03.2022 04:00 1,2 C -0,1 C -2,4 C 91 % 1040,0 hPa 0,0 l/m 0,00 h 0,00 h 0 W/m 0,1 km/h (0 Bft) 96,49 %
18.03.2022 05:00 0,4 C -0,8 C -3,1 C 91 % 1040,5 hPa 0,0 l/m 0,00 h 0,00 h 0 W/m 0,3 km/h (0 Bft) 96,52 %
18.03.2022 06:00 0,1 C -1,1 C -3,3 C 92 % 1041,4 hPa 0,0 l/m 0,00 h 0,00 h 5 W/m 0,8 km/h (0 Bft) 96,31 %
18.03.2022 07:00 0,1 C -0,5 C -2,8 C 93 % 1042,1 hPa 0,0 l/m 0,00 h 0,00 h 20 W/m 0,6 km/h (0 Bft) 96,37 %
18.03.2022 08:00 1,7 C 3,0 C -0,6 C 95 % 1042,4 hPa 0,0 l/m 0,27 h 0,00 h 101 W/m 2,8 km/h (1 Bft) 98,65 %
18.03.2022 09:00 7,1 C 13,3 C 6,0 C 89 % 1042,8 hPa 0,0 l/m 0,80 h 0,00 h 277 W/m 9,1 km/h (2 Bft) 97,48 %
18.03.2022 10:00 10,3 C 15,5 C 10,1 C 71 % 1043,5 hPa 0,0 l/m 0,87 h 0,00 h 436 W/m 13,3 km/h (3 Bft) 97,19 %
18.03.2022 11:00 12,5 C 20,6 C 13,2 C 64 % 1043,7 hPa 0,0 l/m 1,00 h 0,00 h 628 W/m 16,0 km/h (3 Bft) 99,22 %
18.03.2022 12:00 13,5 C 18,0 C 10,8 C 59 % 1043,7 hPa 0,0 l/m 1,00 h 0,00 h 642 W/m 16,8 km/h (3 Bft) 97,57 %
18.03.2022 13:00 14,7 C 24,2 C 10,5 C 53 % 1043,3 hPa 0,0 l/m 1,00 h 0,00 h 656 W/m 18,1 km/h (3 Bft) 96,37 %
18.03.2022 14:00 15,2 C 22,7 C 10,8 C 51 % 1043,0 hPa 0,0 l/m 1,00 h 0,00 h 587 W/m 19,1 km/h (3 Bft) 98,64 %
18.03.2022 15:00 15,4 C 23,1 C 11,4 C 51 % 1042,7 hPa 0,0 l/m 1,00 h 0,00 h 470 W/m 17,7 km/h (3 Bft) 98,36 %
18.03.2022 16:00 14,7 C 21,1 C 9,5 C 53 % 1042,5 hPa 0,0 l/m 1,00 h 0,00 h 322 W/m 17,6 km/h (3 Bft) 96,21 %
18.03.2022 17:00 13,3 C 13,9 C 8,3 C 60 % 1042,5 hPa 0,0 l/m 0,87 h 0,00 h 128 W/m 20,2 km/h (4 Bft) 99,04 %
18.03.2022 18:00 11,8 C 10,9 C 7,0 C 66 % 1042,9 hPa 0,0 l/m 0,00 h 0,00 h 15 W/m 14,0 km/h (3 Bft) 97,24 %
18.03.2022 19:00 10,5 C 9,3 C 5,7 C 70 % 1043,3 hPa 0,0 l/m 0,00 h 0,00 h 0 W/m 10,3 km/h (2 Bft) 97,37 %
18.03.2022 20:00 9,8 C 8,5 C 5,1 C 73 % 1043,5 hPa 0,0 l/m 0,00 h 0,00 h 0 W/m 10,7 km/h (2 Bft) 98,65 %
18.03.2022 21:00 9,0 C 7,7 C 4,3 C 76 % 1043,9 hPa 0,0 l/m 0,00 h 0,00 h 0 W/m 9,0 km/h (2 Bft) 96,22 %
18.03.2022 22:00 8,3 C 7,1 C 3,7 C 78 % 1044,2 hPa 0,0 l/m 0,00 h 0,00 h 0 W/m 7,7 km/h (2 Bft) 98,08 %
18.03.2022 23:00 7,4 C 5,9 C 2,6 C 81 % 1044,1 hPa 0,0 l/m 0,00 h 0,00 h 0 W/m 6,2 km/h (2 Bft) 96,41 %
19.03.2022 00:00 6,6 C 5,4 C 2,1 C 83 % 1044,1 hPa 0,0 l/m 0,00 h 0,00 h 0 W/m 7,0 km/h (2 Bft) 96,98 %
19.03.2022 01:00 6,0 C 4,7 C 1,5 C 85 % 1044,0 hPa 0,0 l/m 0,00 h 0,00 h 0 W/m 6,7 km/h (2 Bft) 97,88 %
19.03.2022 02:00 5,6 C 4,5 C 1,2 C 87 % 1043,6 hPa 0,0 l/m 0,00 h 0,00 h 0 W/m 7,6 km/h (2 Bft) 97,86 %
19.03.2022 03:00 5,3 C 4,1 C 1,0 C 88 % 1043,2 hPa 0,0 l/m 0,00 h 0,00 h 0 W/m 7,9 km/h (2 Bft) 97,44 %
19.03.2022 04:00 4,9 C 3,6 C 0,6 C 89 % 1042,9 hPa 0,0 l/m 0,00 h 0,00 h 0 W/m 6,5 km/h (2 Bft) 96,80 %
19.03.2022 05:00 4,2 C 2,9 C -0,1 C 90 % 1042,7 hPa 0,0 l/m 0,00 h 0,00 h 0 W/m 4,9 km/h (1 Bft) 97,51 %
19.03.2022 06:00 3,8 C 2,4 C -0,6 C 91 % 1042,8 hPa 0,0 l/m 0,00 h 0,00 h 7 W/m 4,1 km/h (1 Bft) 96,15 %
19.03.2022 07:00 3,8 C 3,3 C 0,1 C 92 % 1042,9 hPa 0,0 l/m 0,00 h 0,00 h 21 W/m 5,6 km/h (1 Bft) 96,61 %
19.03.2022 08:00 5,5 C 6,1 C 1,9 C 92 % 1042,9 hPa 0,0 l/m 0,27 h 0,00 h 107 W/m 9,5 km/h (2 Bft) 97,23 %
19.03.2022 09:00 8,7 C 13,6 C 4,7 C 82 % 1042,6 hPa 0,0 l/m 0,87 h 0,00 h 286 W/m 14,2 km/h (3 Bft) 96,96 %
19.03.2022 10:00 11,2 C 16,3 C 9,4 C 72 % 1042,2 hPa 0,0 l/m 0,90 h 0,00 h 448 W/m 15,4 km/h (3 Bft) 98,65 %
19.03.2022 11:00 13,1 C 20,6 C 13,3 C 58 % 1041,3 hPa 0,0 l/m 1,00 h 0,00 h 639 W/m 19,0 km/h (3 Bft) 98,36 %
19.03.2022 12:00 13,2 C 16,7 C 10,1 C 50 % 1040,5 hPa 0,0 l/m 1,00 h 0,00 h 672 W/m 25,3 km/h (4 Bft) 98,68 %
19.03.2022 13:00 13,6 C 21,3 C 9,4 C 42 % 1039,4 hPa 0,0 l/m 1,00 h 0,00 h 674 W/m 27,7 km/h (4 Bft) 97,15 %
19.03.2022 14:00 13,7 C 20,5 C 9,5 C 43 % 1038,3 hPa 0,0 l/m 1,00 h 0,00 h 604 W/m 24,0 km/h (4 Bft) 98,22 %
19.03.2022 15:00 13,7 C 21,8 C 10,3 C 41 % 1037,2 hPa 0,0 l/m 1,00 h 0,00 h 492 W/m 23,3 km/h (4 Bft) 97,15 %
19.03.2022 16:00 12,5 C 18,2 C 7,6 C 43 % 1036,5 hPa 0,0 l/m 1,00 h 0,00 h 338 W/m 30,1 km/h (5 Bft) 97,72 %
19.03.2022 17:00 11,2 C 12,4 C 6,6 C 49 % 1036,2 hPa 0,0 l/m 1,00 h 0,00 h 138 W/m 27,6 km/h (4 Bft) 98,08 %
19.03.2022 18:00 9,7 C 9,0 C 5,2 C 52 % 1036,2 hPa 0,0 l/m 0,00 h 0,00 h 15 W/m 24,0 km/h (4 Bft) 98,01 %
19.03.2022 19:00 8,4 C 7,3 C 3,7 C 59 % 1036,3 hPa 0,0 l/m 0,00 h 0,00 h 0 W/m 13,7 km/h (3 Bft) 96,08 %
19.03.2022 20:00 7,6 C 6,7 C 3,0 C 65 % 1035,9 hPa 0,0 l/m 0,00 h 0,00 h 0 W/m 13,4 km/h (3 Bft) 98,79 %
19.03.2022 21:00 7,0 C 5,9 C 2,4 C 68 % 1035,5 hPa 0,0 l/m 0,00 h 0,00 h 0 W/m 8,6 km/h (2 Bft) 97,87 %
19.03.2022 22:00 7,1 C 6,4 C 2,6 C 70 % 1035,1 hPa 0,0 l/m 0,00 h 0,00 h 0 W/m 8,5 km/h (2 Bft) 95,03 %
19.03.2022 23:00 6,4 C 5,5 C 1,8 C 70 % 1034,4 hPa 0,0 l/m 0,00 h 0,00 h 0 W/m 9,1 km/h (2 Bft) 97,65 %
20.03.2022 00:00 5,9 C 4,9 C 1,4 C 68 % 1033,6 hPa 0,0 l/m 0,00 h 0,00 h 0 W/m 11,5 km/h (2 Bft) 98,95 %
20.03.2022 01:00 5,0 C 3,9 C 0,3 C 71 % 1032,7 hPa 0,0 l/m 0,00 h 0,00 h 0 W/m 8,4 km/h (2 Bft) 96,79 %
20.03.2022 02:00 4,3 C 3,3 C 0,0 C 73 % 1031,7 hPa 0,0 l/m 0,00 h 0,00 h 0 W/m 11,2 km/h (2 Bft) 96,17 %
20.03.2022 03:00 4,0 C 3,1 C -0,4 C 73 % 1030,9 hPa 0,0 l/m 0,00 h 0,00 h 0 W/m 10,0 km/h (2 Bft) 95,26 %
20.03.2022 04:00 4,2 C 3,5 C 0,0 C 71 % 1030,2 hPa 0,0 l/m 0,00 h 0,00 h 0 W/m 9,6 km/h (2 Bft) 96,80 %
20.03.2022 05:00 3,9 C 2,9 C -0,5 C 71 % 1029,4 hPa 0,0 l/m 0,00 h 0,00 h 0 W/m 7,7 km/h (2 Bft) 98,04 %
20.03.2022 06:00 3,1 C 2,1 C -1,3 C 72 % 1028,9 hPa 0,0 l/m 0,00 h 0,00 h 8 W/m 9,2 km/h (2 Bft) 97,50 %
20.03.2022 07:00 3,5 C 3,2 C -0,5 C 71 % 1028,8 hPa 0,0 l/m 0,03 h 0,00 h 47 W/m 11,1 km/h (2 Bft) 97,95 %
20.03.2022 08:00 4,5 C 4,8 C 0,6 C 67 % 1028,0 hPa 0,0 l/m 0,33 h 0,00 h 120 W/m 14,9 km/h (3 Bft) 95,88 %
20.03.2022 09:00 6,7 C 9,6 C 3,0 C 62 % 1027,4 hPa 0,0 l/m 0,80 h 0,00 h 254 W/m 15,5 km/h (3 Bft) 97,01 %
20.03.2022 10:00 8,2 C 8,1 C 4,3 C 58 % 1027,3 hPa 0,0 l/m 0,00 h 0,00 h 158 W/m 23,8 km/h (4 Bft) 96,57 %
20.03.2022 11:00 8,8 C 9,0 C 4,9 C 58 % 1027,2 hPa 0,0 l/m 0,00 h 0,00 h 195 W/m 19,1 km/h (3 Bft) 97,31 %
20.03.2022 12:00 10,2 C 10,1 C 6,0 C 57 % 1026,9 hPa 0,0 l/m 0,00 h 0,00 h 164 W/m 21,2 km/h (4 Bft) 97,62 %
20.03.2022 13:00 9,1 C 7,5 C 3,0 C 72 % 1027,0 hPa 2,4 l/m 0,00 h 0,83 h 31 W/m 20,8 km/h (4 Bft) 96,23 %
20.03.2022 14:00 7,2 C 6,1 C 2,2 C 90 % 1027,2 hPa 2,2 l/m 0,00 h 0,93 h 29 W/m 14,9 km/h (3 Bft) 98,79 %
20.03.2022 15:00 8,8 C 12,4 C 3,8 C 89 % 1027,3 hPa 0,0 l/m 0,77 h 0,00 h 390 W/m 16,6 km/h (3 Bft) 97,67 %
20.03.2022 16:00 11,1 C 14,0 C 4,3 C 74 % 1027,4 hPa 0,0 l/m 0,97 h 0,00 h 318 W/m 19,2 km/h (3 Bft) 97,27 %
20.03.2022 17:00 11,3 C 12,2 C 5,6 C 70 % 1027,6 hPa 0,0 l/m 1,00 h 0,00 h 146 W/m 9,3 km/h (2 Bft) 97,69 %
20.03.2022 18:00 10,4 C 9,3 C 5,4 C 70 % 1028,1 hPa 0,0 l/m 0,57 h 0,00 h 30 W/m 14,3 km/h (3 Bft) 97,20 %
20.03.2022 19:00 9,4 C 8,3 C 4,7 C 68 % 1028,5 hPa 0,0 l/m 0,00 h 0,00 h 0 W/m 9,9 km/h (2 Bft) 95,53 %
20.03.2022 20:00 9,0 C 7,9 C 3,6 C 70 % 1029,1 hPa 0,4 l/m 0,00 h 0,47 h 0 W/m 8,2 km/h (2 Bft) 97,79 %
20.03.2022 21:00 8,0 C 6,6 C 1,9 C 79 % 1029,7 hPa 0,2 l/m 0,00 h 0,63 h 0 W/m 2,8 km/h (1 Bft) 96,08 %
20.03.2022 22:00 7,5 C 6,1 C 2,2 C 85 % 1029,9 hPa 0,4 l/m 0,00 h 0,60 h 0 W/m 0,6 km/h (0 Bft) 96,45 %
20.03.2022 23:00 7,1 C 6,1 C 2,1 C 88 % 1030,1 hPa 0,2 l/m 0,00 h 0,30 h 0 W/m 1,7 km/h (1 Bft) 98,50 %
Min-Datum _ 18.03.22 18.03.22 18.03.22 19.03.22 14.03.22 - - - - 14.03.22 17.03.22
_ Min-Zeit 07:40 05:22 05:22 16:02 00:00 - - - - 18:34 07:52
Minimum _ -0,1 C -1,1 C -3,3 C 38 % 1017,6 hPa - - - - 0,0 km/h (0 Bft) 37,50 %
Max-Datum _ 18.03.22 18.03.22 18.03.22 16.03.22 18.03.22 20.03.22 14.03.22 14.03.22 19.03.22 19.03.22 14.03.22
_ Max-Zeit 15:20 13:22 11:36 08:00 22:34 13:20 16:15 00:08 12:44 16:08 00:00
Maximum _ 15,6 C 25,6 C 15,0 C 97 % 1044,3 hPa 2,4 l/m 0,08 h 0,07 h 691 W/m 57,9 km/h
N-NO (7 Bft)
100,00 %
Durchschnitt _ 8,4 C 8,6 C 4,3 C 78 % 1030,5 hPa #10,6 l/m #33:24 h #6:02 h 211 W/m 11,3 km/h (2 Bft) 97,35 %
© 2022 W. Hausmann